Time;durP1;ratioP1;P1;durP2;ratioP2;P2;SDS_P1;SDS_P2;PMS_P1;PMS_P2;Temp;Humidity;BMP_temperature;BMP_pressure;BME280_temperature;BME280_humidity;BME280_pressure;Samples;Min_cycle;Max_cycle;Signal;HPM_P1;HPM_P2
2022/06/11 00:00:57;;;;;;;19.05;12.38;;;16.60;99.90;;;;;;5028449;28;20045;-73
2022/06/11 00:03:23;;;;;;;20.23;12.82;;;16.60;99.90;;;;;;5055254;28;20510;-74
2022/06/11 00:05:49;;;;;;;16.75;13.43;;;16.60;99.90;;;;;;5041516;28;20055;-73
2022/06/11 00:08:16;;;;;;;19.27;14.07;;;16.60;99.90;;;;;;5036598;28;20045;-73
2022/06/11 00:10:43;;;;;;;21.95;13.73;;;16.60;99.90;;;;;;5055054;28;20112;-73
2022/06/11 00:13:10;;;;;;;15.25;12.27;;;16.60;99.90;;;;;;5055322;28;20064;-73
2022/06/11 00:15:36;;;;;;;16.80;11.90;;;16.60;99.90;;;;;;5050192;28;20047;-73
2022/06/11 00:18:05;;;;;;;18.83;12.95;;;16.60;99.90;;;;;;5048992;28;20071;-74
2022/06/11 00:20:31;;;;;;;16.10;12.35;;;16.60;99.90;;;;;;5037675;28;20038;-74
2022/06/11 00:22:58;;;;;;;16.45;12.02;;;16.60;99.90;;;;;;5026024;28;20756;-73
2022/06/11 00:25:27;;;;;;;20.92;12.75;;;16.60;99.90;;;;;;5050982;28;20048;-74
2022/06/11 00:27:52;;;;;;;18.70;13.20;;;16.60;99.90;;;;;;5044533;28;20081;-74
2022/06/11 00:30:19;;;;;;;17.00;11.93;;;16.60;99.90;;;;;;5014931;28;20052;-74
2022/06/11 00:32:47;;;;;;;15.63;12.95;;;16.50;99.90;;;;;;5034883;28;20037;-74
2022/06/11 00:35:14;;;;;;;18.90;13.02;;;16.50;99.90;;;;;;5053496;28;20101;-74
2022/06/11 00:37:39;;;;;;;17.27;13.35;;;16.50;99.90;;;;;;5049682;28;20115;-74
2022/06/11 00:40:07;;;;;;;18.85;12.50;;;16.50;99.90;;;;;;5026647;28;20478;-74
2022/06/11 00:42:34;;;;;;;17.98;12.18;;;16.60;99.90;;;;;;5037626;28;20139;-74
2022/06/11 00:45:23;;;;;;;16.17;11.82;;;16.50;99.90;;;;;;5032771;28;20215;-74
2022/06/11 00:48:15;;;;;;;17.52;12.90;;;16.50;99.90;;;;;;5050520;28;20063;-74
2022/06/11 00:51:01;;;;;;;14.88;11.95;;;16.50;99.90;;;;;;5048297;28;20391;-73
2022/06/11 00:53:40;;;;;;;16.63;12.48;;;16.50;99.90;;;;;;5037888;28;20044;-74
2022/06/11 00:56:13;;;;;;;13.68;10.85;;;16.60;99.90;;;;;;5038396;28;20354;-74
2022/06/11 00:58:39;;;;;;;;;;;16.50;99.90;;;;;;5036434;28;20028;-74
2022/06/11 01:01:06;;;;;;;15.85;9.88;;;16.50;99.90;;;;;;5070926;28;20301;-74
2022/06/11 01:03:36;;;;;;;13.77;9.45;;;16.50;99.90;;;;;;5051202;28;20041;-74
2022/06/11 01:06:22;;;;;;;14.57;9.45;;;16.50;99.90;;;;;;5052593;28;20052;-74
2022/06/11 01:08:58;;;;;;;13.95;8.93;;;16.50;99.90;;;;;;5041002;28;20037;-74
2022/06/11 01:11:27;;;;;;;13.95;9.30;;;16.50;99.90;;;;;;5052548;28;20041;-74
2022/06/11 01:14:11;;;;;;;14.00;9.45;;;16.50;99.90;;;;;;5052760;28;20076;-74
2022/06/11 01:17:01;;;;;;;13.20;9.38;;;16.40;99.90;;;;;;5053646;28;20041;-74
2022/06/11 01:19:36;;;;;;;13.18;8.30;;;16.40;99.90;;;;;;5050117;28;20032;-74
2022/06/11 01:22:40;;;;;;;15.52;9.18;;;16.30;99.90;;;;;;5051691;28;20367;-74
2022/06/11 01:25:52;;;;;;;12.82;9.82;;;16.30;99.90;;;;;;5035865;28;20041;-74
2022/06/11 01:28:37;;;;;;;13.05;9.63;;;16.20;99.90;;;;;;5019764;28;20048;-74
2022/06/11 01:31:08;;;;;;;12.10;8.88;;;16.20;99.90;;;;;;5066881;28;20055;-74
2022/06/11 01:33:57;;;;;;;19.67;9.60;;;16.10;99.90;;;;;;5048995;28;20388;-73
2022/06/11 01:36:34;;;;;;;11.35;9.05;;;16.10;99.90;;;;;;5041985;28;20029;-74
2022/06/11 01:39:33;;;;;;;11.40;8.88;;;16.00;99.90;;;;;;5050110;28;20045;-73
2022/06/11 01:42:12;;;;;;;15.45;9.25;;;16.00;99.90;;;;;;5035548;28;20123;-73
2022/06/11 01:44:41;;;;;;;13.43;9.48;;;16.00;99.90;;;;;;5051490;28;20048;-69
2022/06/11 01:47:07;;;;;;;11.57;8.73;;;15.90;99.90;;;;;;5035090;28;20157;-74
2022/06/11 01:49:41;;;;;;;17.73;9.82;;;15.90;99.90;;;;;;5049285;28;20465;-74
2022/06/11 01:52:18;;;;;;;24.45;10.93;;;15.80;99.90;;;;;;5048521;28;20036;-74
2022/06/11 01:55:28;;;;;;;13.32;9.70;;;15.80;99.90;;;;;;5046958;28;20033;-73
2022/06/11 01:58:03;;;;;;;13.80;10.02;;;15.80;99.90;;;;;;5052157;28;20028;-73
2022/06/11 02:00:33;;;;;;;16.80;11.00;;;15.70;99.90;;;;;;5065890;28;20044;-74
2022/06/11 02:03:09;;;;;;;21.52;11.05;;;15.70;99.90;;;;;;5054437;28;20045;-74
2022/06/11 02:05:47;;;;;;;16.33;10.73;;;15.60;99.90;;;;;;5030187;28;20492;-74
2022/06/11 02:08:50;;;;;;;15.02;10.82;;;15.60;99.90;;;;;;5032120;28;20076;-74
2022/06/11 02:11:33;;;;;;;18.35;10.90;;;15.50;99.90;;;;;;5033026;28;20532;-74
2022/06/11 02:14:23;;;;;;;14.95;11.15;;;15.50;99.90;;;;;;5050392;28;20071;-74
2022/06/11 02:17:14;;;;;;;18.17;10.57;;;15.50;99.90;;;;;;5048713;28;20177;-74
2022/06/11 02:19:57;;;;;;;14.32;11.00;;;15.50;99.90;;;;;;5060529;28;20056;-74
2022/06/11 02:22:44;;;;;;;14.40;10.68;;;15.40;99.90;;;;;;5049116;28;20108;-74
2022/06/11 02:25:37;;;;;;;15.15;10.75;;;15.30;99.90;;;;;;5051140;28;20045;-74
2022/06/11 02:28:08;;;;;;;17.58;11.18;;;15.30;99.90;;;;;;5051262;28;20545;-74
2022/06/11 02:30:36;;;;;;;14.23;10.77;;;15.30;99.90;;;;;;5048523;28;20040;-74
2022/06/11 02:33:02;;;;;;;13.93;10.65;;;15.20;99.90;;;;;;5049866;28;20037;-74
2022/06/11 02:35:35;;;;;;;15.70;11.15;;;15.20;99.90;;;;;;5053473;28;20477;-74
2022/06/11 02:38:00;;;;;;;14.65;11.25;;;15.20;99.90;;;;;;5051198;28;20039;-74
2022/06/11 02:40:40;;;;;;;21.02;12.88;;;15.20;99.90;;;;;;5052660;28;20041;-74
2022/06/11 02:43:06;;;;;;;19.83;12.50;;;15.10;99.90;;;;;;5048664;28;20041;-74
2022/06/11 02:45:31;;;;;;;18.40;12.70;;;15.10;99.90;;;;;;5048972;28;20547;-75
2022/06/11 02:47:57;;;;;;;17.15;13.77;;;15.10;99.90;;;;;;5027141;28;20461;-74
2022/06/11 02:50:34;;;;;;;18.73;13.90;;;15.10;99.90;;;;;;5054504;28;20033;-74
2022/06/11 02:53:01;;;;;;;21.77;15.80;;;15.10;99.90;;;;;;5047332;28;20720;-74
2022/06/11 02:55:28;;;;;;;25.00;15.00;;;15.10;99.90;;;;;;5053678;28;20102;-74
2022/06/11 02:57:55;;;;;;;18.35;15.32;;;15.20;99.90;;;;;;5026997;28;20032;-74
2022/06/11 03:00:28;;;;;;;20.92;15.25;;;15.20;99.90;;;;;;5064287;28;20038;-74
2022/06/11 03:02:54;;;;;;;25.88;16.58;;;15.20;99.90;;;;;;5053084;28;20036;-74
2022/06/11 03:05:28;;;;;;;26.90;15.23;;;15.20;99.90;;;;;;5030010;28;20037;-74
2022/06/11 03:08:00;;;;;;;21.83;15.80;;;15.30;99.90;;;;;;5041069;28;20397;-74
2022/06/11 03:10:27;;;;;;;21.08;15.02;;;15.30;99.90;;;;;;5045833;28;20056;-74
2022/06/11 03:12:56;;;;;;;23.70;15.43;;;15.30;99.90;;;;;;5032168;28;20037;-74
2022/06/11 03:15:25;;;;;;;20.38;14.77;;;15.30;99.90;;;;;;5043857;28;20041;-74
2022/06/11 03:17:52;;;;;;;24.35;14.75;;;15.30;99.90;;;;;;5030528;28;20033;-74
2022/06/11 03:20:19;;;;;;;20.05;14.75;;;15.30;99.90;;;;;;5032632;28;20036;-74
2022/06/11 03:22:45;;;;;;;21.88;13.68;;;15.30;99.90;;;;;;5047607;28;20543;-73
2022/06/11 03:25:12;;;;;;;17.77;14.77;;;15.30;99.90;;;;;;5045304;28;20747;-74
2022/06/11 03:27:40;;;;;;;17.63;13.50;;;15.30;99.90;;;;;;5033779;28;20048;-74
2022/06/11 03:30:09;;;;;;;19.80;13.68;;;15.20;99.90;;;;;;5017255;28;20052;-74
2022/06/11 03:32:35;;;;;;;20.40;13.60;;;15.30;99.90;;;;;;5047808;28;20048;-74
2022/06/11 03:35:02;;;;;;;18.02;13.20;;;15.30;99.90;;;;;;5034671;28;20083;-74
2022/06/11 03:37:28;;;;;;;14.93;12.57;;;15.20;99.90;;;;;;5049645;28;20051;-74
2022/06/11 03:39:54;;;;;;;21.42;11.20;;;15.20;99.90;;;;;;5016415;28;20036;-74
2022/06/11 03:42:19;;;;;;;15.07;10.52;;;15.20;99.90;;;;;;5019500;28;20048;-74
2022/06/11 03:44:45;;;;;;;13.75;10.27;;;15.10;99.90;;;;;;5046200;28;20045;-74
2022/06/11 03:47:11;;;;;;;13.68;9.52;;;15.10;99.90;;;;;;5032468;28;20048;-73
2022/06/11 03:49:37;;;;;;;11.45;8.95;;;15.10;99.90;;;;;;5053103;28;20436;-74
2022/06/11 03:52:05;;;;;;;17.00;9.98;;;15.10;99.90;;;;;;5052077;28;20025;-74
2022/06/11 03:54:31;;;;;;;13.48;9.40;;;15.10;99.90;;;;;;5051218;28;20052;-74
2022/06/11 03:56:57;;;;;;;11.43;8.73;;;15.00;99.90;;;;;;5053305;28;20088;-74
2022/06/11 03:59:23;;;;;;;18.02;9.90;;;15.00;99.90;;;;;;5050583;28;20513;-74
2022/06/11 04:01:49;;;;;;;14.95;9.20;;;15.00;99.90;;;;;;5029159;28;20037;-74
2022/06/11 04:04:21;;;;;;;10.32;7.82;;;15.00;99.90;;;;;;5034875;28;20444;-74
2022/06/11 04:06:56;;;;;;;12.65;8.30;;;15.00;99.90;;;;;;5051111;28;20041;-74
2022/06/11 04:09:34;;;;;;;10.40;6.93;;;15.00;99.90;;;;;;5032931;28;20549;-74
2022/06/11 04:12:04;;;;;;;13.43;7.00;;;14.90;99.90;;;;;;5045160;28;20037;-73
2022/06/11 04:14:30;;;;;;;12.18;6.95;;;14.90;99.90;;;;;;5030507;28;20033;-74
2022/06/11 04:17:15;;;;;;;12.48;7.13;;;14.90;99.90;;;;;;5033187;28;20049;-74
2022/06/11 04:19:43;;;;;;;10.98;6.47;;;14.90;99.90;;;;;;5032662;28;20052;-74
2022/06/11 04:22:09;;;;;;;9.18;6.28;;;15.00;99.90;;;;;;5048102;28;20508;-74
2022/06/11 04:24:35;;;;;;;11.35;6.38;;;15.10;99.90;;;;;;5032287;28;21535;-74
2022/06/11 04:27:04;;;;;;;12.10;5.75;;;15.10;99.90;;;;;;5047138;28;20180;-74
2022/06/11 04:29:34;;;;;;;10.45;5.47;;;15.10;99.90;;;;;;5048664;28;20524;-74
2022/06/11 04:32:03;;;;;;;11.70;6.07;;;15.10;99.90;;;;;;5052549;28;20041;-74
2022/06/11 04:34:29;;;;;;;10.35;5.05;;;15.00;99.90;;;;;;5049533;28;20124;-74
2022/06/11 04:36:56;;;;;;;9.98;5.60;;;15.00;99.90;;;;;;5040361;28;20036;-74
2022/06/11 04:39:25;;;;;;;13.27;5.85;;;15.00;99.90;;;;;;5035064;28;20048;-74
2022/06/11 04:41:52;;;;;;;10.63;5.70;;;14.90;99.90;;;;;;5040693;28;20052;-74
2022/06/11 04:44:18;;;;;;;10.73;5.43;;;14.90;99.90;;;;;;5031878;28;20048;-74
2022/06/11 04:46:45;;;;;;;7.15;4.50;;;14.90;99.90;;;;;;5039904;28;20039;-74
2022/06/11 04:49:11;;;;;;;12.90;5.65;;;14.90;99.90;;;;;;5037568;28;20041;-74
2022/06/11 04:51:38;;;;;;;12.85;5.25;;;14.90;99.90;;;;;;5042134;28;20497;-74
2022/06/11 04:54:03;;;;;;;10.93;5.13;;;14.90;99.90;;;;;;5051687;28;20120;-74
2022/06/11 04:56:30;;;;;;;11.77;5.20;;;14.90;99.90;;;;;;5037487;28;20170;-74
2022/06/11 04:58:59;;;;;;;9.85;4.90;;;14.90;99.90;;;;;;5058412;28;20102;-74
2022/06/11 05:01:26;;;;;;;15.15;5.00;;;14.90;99.90;;;;;;5038120;28;20048;-74
2022/06/11 05:03:52;;;;;;;11.55;5.20;;;14.90;99.90;;;;;;5041195;28;20098;-74
2022/06/11 05:06:24;;;;;;;13.70;5.75;;;14.90;99.90;;;;;;5036201;28;20133;-74
2022/06/11 05:08:50;;;;;;;8.10;5.28;;;14.90;99.90;;;;;;5050019;28;20033;-74
2022/06/11 05:11:16;;;;;;;12.00;6.20;;;14.90;99.90;;;;;;5048838;28;20033;-74
2022/06/11 05:13:42;;;;;;;9.00;5.50;;;15.00;99.90;;;;;;5035116;28;20040;-74
2022/06/11 05:16:08;;;;;;;11.40;6.53;;;15.00;99.90;;;;;;5048893;28;20134;-74
2022/06/11 05:18:34;;;;;;;11.57;5.93;;;15.00;99.90;;;;;;5034647;28;20044;-74
2022/06/11 05:21:02;;;;;;;11.25;6.25;;;15.10;99.90;;;;;;5053307;28;20033;-74
2022/06/11 05:23:27;;;;;;;10.75;6.70;;;15.10;99.90;;;;;;5052748;28;20397;-74
2022/06/11 05:25:53;;;;;;;10.82;6.05;;;15.10;99.90;;;;;;5015099;28;20049;-74
2022/06/11 05:28:23;;;;;;;11.13;7.20;;;15.20;99.90;;;;;;5054470;28;20045;-74
2022/06/11 05:30:49;;;;;;;14.25;6.68;;;15.20;99.90;;;;;;5071647;28;20037;-74
2022/06/11 05:33:16;;;;;;;16.35;6.75;;;15.30;99.90;;;;;;5050754;28;20382;-74
2022/06/11 05:35:42;;;;;;;13.85;6.30;;;15.30;99.90;;;;;;5042820;28;20045;-75
2022/06/11 05:38:17;;;;;;;14.43;6.15;;;15.40;99.90;;;;;;5034968;28;20095;-74
2022/06/11 05:40:44;;;;;;;14.52;6.30;;;15.40;99.90;;;;;;5048423;28;20034;-74
2022/06/11 05:43:11;;;;;;;12.52;6.07;;;15.50;99.90;;;;;;5055596;28;20043;-74
2022/06/11 05:45:43;;;;;;;13.38;5.75;;;15.50;99.90;;;;;;5051410;28;20044;-74
2022/06/11 05:48:10;;;;;;;14.00;5.43;;;15.50;99.90;;;;;;5051434;28;20033;-74
2022/06/11 05:50:40;;;;;;;11.40;5.10;;;15.60;99.90;;;;;;5055882;28;20497;-74
2022/06/11 05:53:07;;;;;;;14.10;5.60;;;15.60;99.90;;;;;;5050084;28;20044;-74
2022/06/11 05:55:37;;;;;;;12.77;5.50;;;15.60;99.90;;;;;;5054387;28;20051;-74
2022/06/11 05:58:06;;;;;;;11.25;5.10;;;15.70;99.90;;;;;;5030980;28;20068;-74
2022/06/11 06:00:33;;;;;;;17.48;5.38;;;15.70;99.90;;;;;;5054908;28;20041;-75
2022/06/11 06:03:06;;;;;;;14.93;5.35;;;15.80;99.90;;;;;;5052861;28;20525;-74
2022/06/11 06:05:32;;;;;;;16.25;5.43;;;15.80;99.90;;;;;;5039283;28;20040;-73
2022/06/11 06:07:58;;;;;;;14.10;5.47;;;15.80;99.90;;;;;;5048044;28;20040;-75
2022/06/11 06:10:31;;;;;;;16.75;5.68;;;15.90;99.90;;;;;;5051502;28;20042;-74
2022/06/11 06:12:57;;;;;;;;;;;15.90;99.90;;;;;;5051650;28;20603;-75
2022/06/11 06:15:25;;;;;;;13.73;5.38;;;15.90;99.90;;;;;;5030858;28;20115;-74
2022/06/11 06:17:52;;;;;;;12.93;5.18;;;16.00;99.90;;;;;;5052628;28;20456;-74
2022/06/11 06:20:20;;;;;;;12.77;5.07;;;16.00;99.90;;;;;;5051693;28;20461;-74
2022/06/11 06:22:46;;;;;;;13.60;4.88;;;16.10;99.90;;;;;;5050067;28;20086;-73
2022/06/11 06:25:17;;;;;;;12.82;5.20;;;16.10;99.90;;;;;;5034935;28;20032;-74
2022/06/11 06:27:43;;;;;;;11.52;4.55;;;16.20;99.90;;;;;;5049522;28;20115;-74
2022/06/11 06:30:09;;;;;;;17.63;5.65;;;16.30;99.90;;;;;;5036553;28;20037;-74
2022/06/11 06:32:35;;;;;;;14.98;5.40;;;16.30;99.90;;;;;;5032734;28;20037;-74
2022/06/11 06:35:01;;;;;;;15.20;4.97;;;16.40;99.90;;;;;;5046449;28;20039;-75
2022/06/11 06:37:27;;;;;;;11.32;4.90;;;16.50;99.90;;;;;;5034547;28;20701;-74
2022/06/11 06:39:53;;;;;;;12.02;5.00;;;16.50;99.90;;;;;;5048027;28;20033;-74
2022/06/11 06:42:18;;;;;;;14.68;4.57;;;16.60;99.90;;;;;;5017796;28;20036;-74
2022/06/11 06:44:44;;;;;;;18.98;5.15;;;16.60;99.90;;;;;;5050684;28;20044;-74
2022/06/11 06:47:12;;;;;;;14.35;5.28;;;16.70;99.90;;;;;;5017148;28;20033;-73
2022/06/11 06:49:38;;;;;;;16.90;4.93;;;16.70;99.90;;;;;;5046909;28;20041;-74
2022/06/11 06:52:04;;;;;;;16.80;5.30;;;16.80;99.90;;;;;;5032435;28;20102;-74
2022/06/11 06:54:30;;;;;;;22.52;4.97;;;16.80;99.90;;;;;;5049867;28;20041;-74
2022/06/11 06:56:56;;;;;;;15.18;5.40;;;16.90;99.90;;;;;;5038473;28;20057;-74
2022/06/11 06:59:24;;;;;;;15.07;4.35;;;17.00;99.90;;;;;;5033706;28;20045;-74
2022/06/11 07:01:50;;;;;;;15.60;4.57;;;17.00;99.90;;;;;;5042490;28;20041;-74
2022/06/11 07:04:15;;;;;;;16.45;4.68;;;17.10;99.90;;;;;;5018584;28;20554;-73
2022/06/11 07:06:41;;;;;;;16.75;5.65;;;17.20;99.90;;;;;;5051565;28;20095;-74
2022/06/11 07:09:07;;;;;;;13.80;5.47;;;17.30;99.90;;;;;;5036777;28;20115;-73
2022/06/11 07:11:33;;;;;;;20.30;4.30;;;17.40;99.90;;;;;;5044844;28;20040;-74
2022/06/11 07:13:59;;;;;;;15.82;4.72;;;17.50;99.90;;;;;;5049672;28;20047;-73
2022/06/11 07:16:41;;;;;;;17.00;5.03;;;17.70;99.90;;;;;;5049307;28;20502;-74
2022/06/11 07:19:12;;;;;;;15.90;4.45;;;17.70;99.90;;;;;;5051438;28;20101;-75
2022/06/11 07:21:42;;;;;;;16.00;4.80;;;17.70;99.90;;;;;;5044950;28;20053;-74
2022/06/11 07:24:14;;;;;;;19.85;5.05;;;17.80;99.90;;;;;;5051320;28;20363;-73
2022/06/11 07:26:45;;;;;;;23.10;5.23;;;17.90;99.90;;;;;;5042864;28;20056;-73
2022/06/11 07:29:21;;;;;;;11.63;4.20;;;17.90;99.90;;;;;;5040374;28;20032;-73
2022/06/11 07:31:50;;;;;;;20.08;4.80;;;18.00;99.90;;;;;;5037557;28;20045;-73
2022/06/11 07:34:16;;;;;;;16.08;5.32;;;18.10;99.90;;;;;;5046998;28;20036;-72
2022/06/11 07:36:42;;;;;;;13.98;4.40;;;18.20;99.90;;;;;;5018288;28;20468;-73
2022/06/11 07:39:15;;;;;;;22.98;4.63;;;18.30;99.90;;;;;;5050351;28;20045;-72
2022/06/11 07:41:42;;;;;;;18.35;4.82;;;18.50;99.90;;;;;;5046817;28;20056;-72
2022/06/11 07:44:08;;;;;;;15.98;4.95;;;18.60;99.90;;;;;;5050068;28;20044;-72
2022/06/11 07:46:34;;;;;;;17.95;4.60;;;18.70;99.90;;;;;;5037427;28;20068;-73
2022/06/11 07:49:00;;;;;;;19.63;5.00;;;18.60;99.90;;;;;;5047524;28;20518;-73
2022/06/11 07:51:25;;;;;;;15.20;4.30;;;18.70;99.90;;;;;;5036712;28;20071;-73
2022/06/11 07:53:51;;;;;;;16.30;5.38;;;18.60;99.90;;;;;;5018599;28;20040;-73
2022/06/11 07:56:18;;;;;;;16.10;4.68;;;18.70;99.90;;;;;;5018329;28;20041;-73
2022/06/11 07:58:44;;;;;;;14.75;4.85;;;18.80;99.90;;;;;;5046378;28;20098;-73
2022/06/11 08:01:09;;;;;;;17.88;4.72;;;18.90;99.90;;;;;;5004109;28;20497;-73
2022/06/11 08:03:38;;;;;;;14.93;5.00;;;19.00;99.90;;;;;;5052613;28;20040;-73
2022/06/11 08:06:05;;;;;;;18.63;5.13;;;19.10;99.90;;;;;;5020915;28;20186;-73
2022/06/11 08:08:32;;;;;;;17.35;5.03;;;19.20;99.90;;;;;;5020709;28;20041;-73
2022/06/11 08:11:01;;;;;;;17.10;4.97;;;19.30;99.90;;;;;;5028889;28;20494;-74
2022/06/11 08:13:27;;;;;;;14.93;4.78;;;19.40;99.90;;;;;;5049072;28;20052;-73
2022/06/11 08:15:53;;;;;;;16.17;4.85;;;19.30;99.90;;;;;;5046586;28;20037;-73
2022/06/11 08:18:20;;;;;;;20.80;5.90;;;19.40;99.90;;;;;;5030571;28;20036;-71
2022/06/11 08:20:46;;;;;;;14.77;4.70;;;19.40;99.90;;;;;;5042450;28;20040;-70
2022/06/11 08:23:12;;;;;;;17.35;4.90;;;19.30;99.90;;;;;;5046315;28;20033;-70
2022/06/11 08:25:39;;;;;;;22.60;4.43;;;19.30;99.90;;;;;;5051961;28;20061;-70
2022/06/11 08:28:05;;;;;;;17.10;4.63;;;19.30;99.90;;;;;;5050643;28;20056;-70
2022/06/11 08:30:33;;;;;;;17.65;4.95;;;19.20;99.90;;;;;;5061676;28;20048;-71
2022/06/11 08:32:59;;;;;;;16.75;4.93;;;19.30;99.90;;;;;;5047065;28;20038;-71
2022/06/11 08:35:28;;;;;;;18.88;5.20;;;19.40;99.90;;;;;;5053373;28;20034;-71
2022/06/11 08:37:54;;;;;;;18.90;5.25;;;19.30;99.90;;;;;;5044406;28;20048;-71
2022/06/11 08:40:27;;;;;;;16.02;4.60;;;19.50;99.90;;;;;;5035013;28;20062;-71
2022/06/11 08:43:17;;;;;;;19.27;4.60;;;19.60;99.90;;;;;;5034186;28;20061;-71
2022/06/11 08:45:47;;;;;;;15.02;4.65;;;19.90;99.90;;;;;;5059213;28;20051;-71
2022/06/11 08:48:31;;;;;;;20.27;4.72;;;20.10;99.90;;;;;;5038018;28;20114;-75
2022/06/11 08:51:11;;;;;;;19.13;4.80;;;20.30;99.90;;;;;;5069917;28;20049;-75
2022/06/11 08:53:38;;;;;;;21.98;5.72;;;20.50;99.90;;;;;;5035915;28;20040;-75
2022/06/11 08:56:09;;;;;;;17.35;5.20;;;20.60;99.90;;;;;;5050497;28;20494;-74
2022/06/11 08:58:52;;;;;;;16.98;5.13;;;20.70;99.90;;;;;;5053085;28;20048;-75
2022/06/11 09:02:04;;;;;;;19.63;4.72;;;20.80;99.90;;;;;;5035259;28;20032;-75
2022/06/11 09:05:00;;;;;;;21.30;5.53;;;20.70;99.90;;;;;;5047172;28;20045;-75
2022/06/11 09:08:07;;;;;;;20.33;4.82;;;20.50;99.90;;;;;;5067039;28;20041;-75
2022/06/11 09:11:01;;;;;;;19.75;5.88;;;20.70;99.90;;;;;;5035084;28;20048;-75
2022/06/11 09:13:57;;;;;;;17.08;4.65;;;20.90;99.90;;;;;;5047011;28;20044;-75
2022/06/11 09:16:44;;;;;;;14.32;5.18;;;21.00;99.90;;;;;;5050227;28;20097;-75
2022/06/11 09:19:28;;;;;;;19.95;5.07;;;21.00;99.90;;;;;;5034812;28;20090;-70
2022/06/11 09:22:21;;;;;;;19.20;5.50;;;20.80;99.90;;;;;;5038595;28;20048;-69
2022/06/11 09:25:24;;;;;;;29.15;6.38;;;20.80;99.90;;;;;;5036469;28;20390;-70
2022/06/11 09:28:16;;;;;;;22.52;5.97;;;20.90;99.90;;;;;;5064694;28;20454;-71
2022/06/11 09:30:46;;;;;;;20.98;4.60;;;20.80;99.90;;;;;;5032653;28;20044;-70
2022/06/11 09:33:20;;;;;;;15.95;4.68;;;20.90;99.90;;;;;;5029889;28;20109;-70
2022/06/11 09:35:58;;;;;;;16.77;4.50;;;20.90;99.90;;;;;;5052939;28;20044;-70
2022/06/11 09:38:48;;;;;;;11.48;4.03;;;21.40;99.90;;;;;;5052107;28;20045;-70
2022/06/11 09:41:29;;;;;;;20.88;5.20;;;21.20;99.90;;;;;;5048844;28;20036;-70
2022/06/11 09:44:15;;;;;;;22.08;5.00;;;20.90;99.90;;;;;;5044151;28;20040;-72
2022/06/11 09:46:51;;;;;;;16.52;4.88;;;20.80;99.90;;;;;;5033389;28;20118;-72
2022/06/11 09:49:30;;;;;;;14.07;4.22;;;20.80;99.90;;;;;;5048878;28;20115;-69
2022/06/11 09:52:10;;;;;;;16.00;4.35;;;21.10;99.90;;;;;;5030957;28;20704;-70
2022/06/11 09:54:53;;;;;;;16.52;4.97;;;21.30;99.90;;;;;;5035929;28;20094;-75
2022/06/11 09:57:31;;;;;;;15.23;4.53;;;21.30;99.90;;;;;;5046419;28;20052;-73
2022/06/11 10:00:07;;;;;;;17.55;4.60;;;21.50;99.90;;;;;;5050831;28;20041;-75
2022/06/11 10:05:19;;;;;;;14.13;4.00;;;21.80;99.90;;;;;;5036705;28;20072;-74
2022/06/11 10:07:51;;;;;;;21.00;4.55;;;21.90;99.90;;;;;;5031640;28;20403;-74
2022/06/11 10:10:25;;;;;;;15.98;4.05;;;21.90;99.90;;;;;;5032318;28;20167;-74
2022/06/11 10:13:18;;;;;;;7.13;2.75;;;22.00;99.90;;;;;;5035326;28;20037;-75
2022/06/11 10:15:51;;;;;;;11.13;2.90;;;22.20;99.20;;;;;;5037509;28;20497;-74
2022/06/11 10:18:24;;;;;;;13.15;3.55;;;22.10;96.80;;;;;;5045684;28;20108;-75
2022/06/11 10:20:56;;;;;;;14.38;3.40;;;21.90;97.60;;;;;;5038615;28;20056;-73
2022/06/11 10:23:41;;;;;;;12.32;3.92;;;21.90;98.00;;;;;;5044776;28;20064;-73
2022/06/11 10:26:28;;;;;;;12.98;3.83;;;21.90;97.40;;;;;;5048454;28;20128;-75
2022/06/11 10:29:01;;;;;;;9.10;3.30;;;21.80;98.00;;;;;;5033404;28;20702;-74
2022/06/11 10:31:47;;;;;;;15.23;3.50;;;21.60;98.10;;;;;;5032457;28;20046;-73
2022/06/11 10:34:20;;;;;;;12.23;3.63;;;21.50;97.50;;;;;;5042945;28;20094;-73
2022/06/11 10:36:54;;;;;;;15.05;4.10;;;21.50;97.10;;;;;;5039874;28;20045;-74
2022/06/11 10:39:46;;;;;;;12.10;3.50;;;21.70;97.70;;;;;;5039812;28;20041;-76
2022/06/11 10:42:18;;;;;;;11.85;3.63;;;21.90;95.90;;;;;;5018189;28;20037;-73
2022/06/11 10:44:53;;;;;;;10.23;3.10;;;22.20;96.30;;;;;;5041601;28;20040;-74
2022/06/11 10:47:38;;;;;;;16.50;3.95;;;22.30;96.00;;;;;;5044797;28;20102;-74
2022/06/11 10:50:09;;;;;;;17.88;3.70;;;22.40;94.60;;;;;;5037187;28;20036;-74
2022/06/11 10:52:55;;;;;;;14.50;4.17;;;22.40;95.60;;;;;;5034486;28;20028;-74
2022/06/11 10:55:44;;;;;;;12.25;3.42;;;22.40;94.70;;;;;;5030136;28;20112;-74
2022/06/11 10:58:24;;;;;;;13.30;4.03;;;22.60;95.90;;;;;;5030985;28;20033;-75
2022/06/11 11:01:02;;;;;;;10.70;3.20;;;22.70;94.60;;;;;;5047207;28;20048;-75
2022/06/11 11:03:41;;;;;;;12.65;3.40;;;22.90;95.40;;;;;;5032133;28;20032;-74
2022/06/11 11:06:09;;;;;;;14.13;3.72;;;23.00;94.20;;;;;;5042231;28;20145;-73
2022/06/11 11:08:49;;;;;;;13.10;3.47;;;23.10;94.20;;;;;;5049592;28;20421;-75
2022/06/11 11:11:15;;;;;;;11.95;3.40;;;23.30;94.40;;;;;;5049469;28;20037;-75
2022/06/11 11:13:44;;;;;;;9.48;3.50;;;23.30;93.90;;;;;;5012663;28;20487;-74
2022/06/11 11:16:13;;;;;;;12.55;3.33;;;23.40;93.70;;;;;;5034206;28;20041;-74
2022/06/11 11:18:51;;;;;;;10.23;2.95;;;23.40;92.00;;;;;;5035770;28;20046;-72
2022/06/11 11:21:23;;;;;;;12.40;3.42;;;23.40;91.70;;;;;;5048796;28;20046;-74
2022/06/11 11:23:50;;;;;;;10.32;3.30;;;23.40;91.70;;;;;;5048532;28;20505;-74
2022/06/11 11:26:35;;;;;;;8.57;3.13;;;23.40;91.00;;;;;;5017287;28;20053;-74
2022/06/11 11:29:10;;;;;;;8.90;2.83;;;23.50;90.70;;;;;;5042722;28;20033;-75
2022/06/11 11:31:45;;;;;;;10.20;3.47;;;23.60;90.10;;;;;;5046966;28;20044;-75
2022/06/11 11:34:16;;;;;;;10.77;2.90;;;23.60;90.00;;;;;;5049733;28;20056;-76
2022/06/11 11:36:42;;;;;;;11.15;3.72;;;23.70;91.40;;;;;;5036891;28;20556;-75
2022/06/11 11:39:13;;;;;;;10.00;3.45;;;23.80;91.30;;;;;;5007400;28;20113;-75
2022/06/11 11:41:48;;;;;;;10.73;3.30;;;24.00;90.90;;;;;;5041550;28;20174;-74
2022/06/11 11:44:19;;;;;;;10.30;2.92;;;24.00;89.20;;;;;;5035308;28;20131;-73
2022/06/11 11:46:48;;;;;;;10.02;3.22;;;24.10;89.70;;;;;;5028071;28;20040;-75
2022/06/11 11:49:29;;;;;;;14.15;3.75;;;24.00;90.00;;;;;;5058580;28;20117;-75
2022/06/11 11:52:11;;;;;;;10.65;2.72;;;23.90;89.20;;;;;;5053758;28;20190;-77
2022/06/11 11:54:47;;;;;;;9.75;2.95;;;23.90;86.50;;;;;;5035369;28;20558;-75
2022/06/11 11:57:15;;;;;;;9.63;3.05;;;24.00;89.00;;;;;;5028467;28;20044;-76
2022/06/11 11:59:56;;;;;;;12.02;3.25;;;24.00;88.50;;;;;;5034242;28;20053;-74
2022/06/11 12:02:41;;;;;;;10.82;3.50;;;24.00;88.40;;;;;;5047048;28;20047;-74
2022/06/11 12:05:22;;;;;;;13.95;3.75;;;23.90;86.70;;;;;;5042382;28;20123;-74
2022/06/11 12:07:50;;;;;;;15.50;4.03;;;24.00;88.00;;;;;;5053337;28;20041;-75
2022/06/11 12:10:36;;;;;;;11.57;3.17;;;24.00;88.20;;;;;;5046868;28;20516;-75
2022/06/11 12:13:17;;;;;;;9.88;3.47;;;24.10;86.80;;;;;;5051797;28;20040;-75
2022/06/11 12:15:52;;;;;;;10.23;3.00;;;24.00;87.60;;;;;;5052394;28;20676;-75
2022/06/11 12:18:21;;;;;;;11.18;3.38;;;23.90;88.20;;;;;;5038472;28;20032;-75
2022/06/11 12:20:55;;;;;;;10.18;2.90;;;23.90;87.30;;;;;;5052250;28;20563;-74
2022/06/11 12:23:55;;;;;;;9.88;3.38;;;23.70;86.80;;;;;;5058429;28;20124;-75
2022/06/11 12:26:39;;;;;;;13.27;3.50;;;23.60;87.30;;;;;;5066638;28;20140;-75
2022/06/11 12:29:31;;;;;;;10.93;3.05;;;23.70;87.80;;;;;;5029022;28;20036;-76
2022/06/11 12:32:01;;;;;;;;;;;23.70;85.30;;;;;;5044826;28;20120;-76
2022/06/11 12:34:32;;;;;;;10.82;3.10;;;23.70;86.40;;;;;;5050417;28;20071;-75
2022/06/11 12:36:59;;;;;;;10.48;3.28;;;23.80;86.70;;;;;;5029082;28;20060;-75
2022/06/11 12:39:43;;;;;;;12.07;3.40;;;23.80;85.10;;;;;;5044654;28;20085;-76
2022/06/11 12:42:15;;;;;;;10.27;3.22;;;23.90;85.90;;;;;;5034214;28;20640;-73
2022/06/11 12:45:07;;;;;;;11.57;3.20;;;23.80;85.90;;;;;;5046165;28;20514;-74
2022/06/11 12:48:28;;;;;;;9.38;3.03;;;24.00;86.60;;;;;;5048557;28;20120;-74
2022/06/11 12:51:10;;;;;;;9.98;2.95;;;24.00;85.80;;;;;;5005224;28;20048;-74
2022/06/11 12:53:36;;;;;;;17.52;3.78;;;24.10;86.00;;;;;;5054840;28;20490;-75
2022/06/11 12:56:31;;;;;;;13.10;3.97;;;24.20;86.50;;;;;;5037396;28;20262;-76
2022/06/11 12:59:22;;;;;;;8.57;3.28;;;24.20;84.20;;;;;;5037954;28;20494;-76
2022/06/11 13:02:12;;;;;;;11.30;3.20;;;24.30;86.30;;;;;;5038508;28;20558;-77
2022/06/11 13:05:03;;;;;;;12.25;3.47;;;24.50;85.30;;;;;;5049803;28;20049;-76
2022/06/11 13:07:59;;;;;;;11.45;3.45;;;24.40;83.70;;;;;;5056851;28;20041;-77
2022/06/11 13:10:48;;;;;;;9.57;3.25;;;24.40;83.60;;;;;;5061123;28;20316;-76